General Aviation Weather

Text Reports

Enter one or more of the following location identifiers separated by a space:

Zip Code, Four-Character ICAO or Three-Character IATA airport codes.

METAR - Aviation Routine Weather Report
KDXX - Madison, Minnesota
Updated at 3:34 AM GMT on April 19, 2014 (10:34 PM CDT):
METAR KDXX 190334Z AUTO 13020G28KT 10SM CLR 11/03 A2997 RMK AO2
TAF - Terminal Area Forecast
KDXX - Madison, Minnesota
Updated at 3:34 AM GMT on April 19, 2014 (10:34 PM CDT):
No TAF is currently available for this location.
Decoded:
No decoded TAF is available.
PIREP - Pilot Weather Report
KDXX - Madison, Minnesota
Updated at 3:34 AM GMT on April 19, 2014 (10:34 PM CDT):
No PIREP is currently available for this location.
AIRMET - Airmens Meteorological Information
KDXX - Madison, Minnesota
Updated at 3:34 AM GMT on April 19, 2014 (10:34 PM CDT):
No AIRMET is currently available for this location.
SIGMET - Significant Meteorological Information
KDXX - Madison, Minnesota
Updated at 3:34 AM GMT on April 19, 2014 (10:34 PM CDT):
No SIGMET is currently available for this location.
NOTAM - Notice to Airmen
KDXX - Madison, Minnesota
Updated at 3:34 AM GMT on April 19, 2014 (10:34 PM CDT):
No NOTAM is currently available for this location.
Forecast Area
KDXX - Madison, Minnesota
Updated at 3:34 AM GMT on April 19, 2014 (10:34 PM CDT):
No NOTAM is currently available for this location.
Aviation Weather Maps